sensor_id;sensor_type;location;lat;lon;timestamp;temperature;humidity
56542;DHT22;42438;53.174;6.730;2023-04-24T00:01:55;11.50;99.90
56542;DHT22;42438;53.174;6.730;2023-04-24T00:04:26;11.50;99.90
56542;DHT22;42438;53.174;6.730;2023-04-24T00:06:57;11.60;99.90
56542;DHT22;42438;53.174;6.730;2023-04-24T00:09:30;11.70;99.90
56542;DHT22;42438;53.174;6.730;2023-04-24T00:12:00;11.40;99.90
56542;DHT22;42438;53.174;6.730;2023-04-24T00:14:32;11.60;99.90
56542;DHT22;42438;53.174;6.730;2023-04-24T00:17:03;11.50;99.90
56542;DHT22;42438;53.174;6.730;2023-04-24T00:19:33;11.40;99.90
56542;DHT22;42438;53.174;6.730;2023-04-24T00:22:04;11.10;99.90
56542;DHT22;42438;53.174;6.730;2023-04-24T00:24:35;11.10;99.90
56542;DHT22;42438;53.174;6.730;2023-04-24T00:27:06;11.40;99.90
56542;DHT22;42438;53.174;6.730;2023-04-24T00:29:36;11.00;99.90
56542;DHT22;42438;53.174;6.730;2023-04-24T00:32:07;11.00;99.90
56542;DHT22;42438;53.174;6.730;2023-04-24T00:34:37;11.00;99.90
56542;DHT22;42438;53.174;6.730;2023-04-24T00:37:08;11.10;99.90
56542;DHT22;42438;53.174;6.730;2023-04-24T00:39:38;11.00;99.90
56542;DHT22;42438;53.174;6.730;2023-04-24T00:42:09;10.90;99.90
56542;DHT22;42438;53.174;6.730;2023-04-24T00:44:40;10.70;99.90
56542;DHT22;42438;53.174;6.730;2023-04-24T00:47:11;10.70;99.90
56542;DHT22;42438;53.174;6.730;2023-04-24T00:49:42;10.70;99.90
56542;DHT22;42438;53.174;6.730;2023-04-24T00:52:12;10.60;99.90
56542;DHT22;42438;53.174;6.730;2023-04-24T00:54:47;10.70;99.90
56542;DHT22;42438;53.174;6.730;2023-04-24T00:57:18;10.60;99.90
56542;DHT22;42438;53.174;6.730;2023-04-24T00:59:48;10.60;99.90
56542;DHT22;42438;53.174;6.730;2023-04-24T01:02:19;10.80;99.90
56542;DHT22;42438;53.174;6.730;2023-04-24T01:04:50;10.80;99.90
56542;DHT22;42438;53.174;6.730;2023-04-24T01:35:06;10.40;99.90
56542;DHT22;42438;53.174;6.730;2023-04-24T01:37:37;10.30;99.90
56542;DHT22;42438;53.174;6.730;2023-04-24T01:40:07;10.10;99.90
56542;DHT22;42438;53.174;6.730;2023-04-24T01:42:38;10.10;99.90
56542;DHT22;42438;53.174;6.730;2023-04-24T01:45:11;10.30;99.90
56542;DHT22;42438;53.174;6.730;2023-04-24T01:47:42;10.40;99.90
56542;DHT22;42438;53.174;6.730;2023-04-24T01:50:13;10.30;99.90
56542;DHT22;42438;53.174;6.730;2023-04-24T01:52:44;10.10;99.90
56542;DHT22;42438;53.174;6.730;2023-04-24T01:55:14;10.50;99.90
56542;DHT22;42438;53.174;6.730;2023-04-24T01:57:45;10.30;99.90
56542;DHT22;42438;53.174;6.730;2023-04-24T02:00:16;10.30;99.90
56542;DHT22;42438;53.174;6.730;2023-04-24T02:02:46;10.10;99.90
56542;DHT22;42438;53.174;6.730;2023-04-24T02:05:17;10.10;99.90
56542;DHT22;42438;53.174;6.730;2023-04-24T02:07:47;10.10;99.90
56542;DHT22;42438;53.174;6.730;2023-04-24T02:10:18;10.10;99.90
56542;DHT22;42438;53.174;6.730;2023-04-24T02:12:48;10.10;99.90
56542;DHT22;42438;53.174;6.730;2023-04-24T02:15:19;10.10;99.90
56542;DHT22;42438;53.174;6.730;2023-04-24T02:17:49;10.20;99.90
56542;DHT22;42438;53.174;6.730;2023-04-24T02:20:20;10.20;99.90
56542;DHT22;42438;53.174;6.730;2023-04-24T02:22:51;10.00;99.90
56542;DHT22;42438;53.174;6.730;2023-04-24T02:25:21;10.20;99.90
56542;DHT22;42438;53.174;6.730;2023-04-24T02:27:52;10.00;99.90
56542;DHT22;42438;53.174;6.730;2023-04-24T02:30:22;10.10;99.90
56542;DHT22;42438;53.174;6.730;2023-04-24T02:32:53;10.00;99.90
56542;DHT22;42438;53.174;6.730;2023-04-24T02:35:24;10.10;99.90
56542;DHT22;42438;53.174;6.730;2023-04-24T02:37:54;10.20;99.90
56542;DHT22;42438;53.174;6.730;2023-04-24T02:40:25;10.00;99.90
56542;DHT22;42438;53.174;6.730;2023-04-24T02:42:55;10.10;99.90
56542;DHT22;42438;53.174;6.730;2023-04-24T02:45:26;10.00;99.90
56542;DHT22;42438;53.174;6.730;2023-04-24T02:47:56;10.00;99.90
56542;DHT22;42438;53.174;6.730;2023-04-24T02:50:27;10.30;99.90
56542;DHT22;42438;53.174;6.730;2023-04-24T02:52:57;10.10;99.90
56542;DHT22;42438;53.174;6.730;2023-04-24T02:55:28;10.10;99.90
56542;DHT22;42438;53.174;6.730;2023-04-24T02:57:59;10.10;99.90
56542;DHT22;42438;53.174;6.730;2023-04-24T03:00:30;10.50;99.90
56542;DHT22;42438;53.174;6.730;2023-04-24T03:03:00;10.20;99.90
56542;DHT22;42438;53.174;6.730;2023-04-24T03:05:31;10.50;99.90
56542;DHT22;42438;53.174;6.730;2023-04-24T03:08:01;10.30;99.90
56542;DHT22;42438;53.174;6.730;2023-04-24T03:10:32;10.10;99.90
56542;DHT22;42438;53.174;6.730;2023-04-24T03:13:02;10.10;99.90
56542;DHT22;42438;53.174;6.730;2023-04-24T03:15:33;10.10;99.90
56542;DHT22;42438;53.174;6.730;2023-04-24T03:18:04;10.30;99.90
56542;DHT22;42438;53.174;6.730;2023-04-24T03:20:34;10.00;99.90
56542;DHT22;42438;53.174;6.730;2023-04-24T03:23:07;10.30;99.90
56542;DHT22;42438;53.174;6.730;2023-04-24T03:25:37;10.10;99.90
56542;DHT22;42438;53.174;6.730;2023-04-24T03:28:08;10.20;99.90
56542;DHT22;42438;53.174;6.730;2023-04-24T03:30:38;10.40;99.90
56542;DHT22;42438;53.174;6.730;2023-04-24T03:33:09;10.00;99.90
56542;DHT22;42438;53.174;6.730;2023-04-24T03:35:40;10.10;99.90
56542;DHT22;42438;53.174;6.730;2023-04-24T03:38:11;10.20;99.90
56542;DHT22;42438;53.174;6.730;2023-04-24T03:40:42;10.00;99.90
56542;DHT22;42438;53.174;6.730;2023-04-24T03:43:12;10.00;99.90
56542;DHT22;42438;53.174;6.730;2023-04-24T03:45:43;10.20;99.90
56542;DHT22;42438;53.174;6.730;2023-04-24T03:48:13;10.00;99.90
56542;DHT22;42438;53.174;6.730;2023-04-24T03:50:44;10.10;99.90
56542;DHT22;42438;53.174;6.730;2023-04-24T03:53:15;10.00;99.90
56542;DHT22;42438;53.174;6.730;2023-04-24T03:55:45;10.10;99.90
56542;DHT22;42438;53.174;6.730;2023-04-24T03:58:16;9.90;99.90
56542;DHT22;42438;53.174;6.730;2023-04-24T04:00:48;10.00;99.90
56542;DHT22;42438;53.174;6.730;2023-04-24T04:03:19;9.90;99.90
56542;DHT22;42438;53.174;6.730;2023-04-24T04:05:50;10.10;99.90
56542;DHT22;42438;53.174;6.730;2023-04-24T04:08:21;10.20;99.90
56542;DHT22;42438;53.174;6.730;2023-04-24T04:10:52;10.20;99.90
56542;DHT22;42438;53.174;6.730;2023-04-24T04:13:22;9.90;99.90
56542;DHT22;42438;53.174;6.730;2023-04-24T04:15:53;9.80;99.90
56542;DHT22;42438;53.174;6.730;2023-04-24T04:18:23;10.10;99.90
56542;DHT22;42438;53.174;6.730;2023-04-24T04:20:54;9.80;99.90
56542;DHT22;42438;53.174;6.730;2023-04-24T04:23:24;9.80;99.90
56542;DHT22;42438;53.174;6.730;2023-04-24T04:25:56;10.00;99.90
56542;DHT22;42438;53.174;6.730;2023-04-24T04:28:26;10.00;99.90
56542;DHT22;42438;53.174;6.730;2023-04-24T04:30:57;10.10;99.90
56542;DHT22;42438;53.174;6.730;2023-04-24T04:33:28;10.20;99.90
56542;DHT22;42438;53.174;6.730;2023-04-24T04:35:58;9.80;99.90
56542;DHT22;42438;53.174;6.730;2023-04-24T04:38:30;9.80;99.90
56542;DHT22;42438;53.174;6.730;2023-04-24T04:41:00;9.90;99.90
56542;DHT22;42438;53.174;6.730;2023-04-24T04:43:31;9.80;99.90
56542;DHT22;42438;53.174;6.730;2023-04-24T04:46:02;9.90;99.90
56542;DHT22;42438;53.174;6.730;2023-04-24T04:48:33;9.80;99.90
56542;DHT22;42438;53.174;6.730;2023-04-24T04:51:04;9.90;99.90
56542;DHT22;42438;53.174;6.730;2023-04-24T04:53:35;9.80;99.90
56542;DHT22;42438;53.174;6.730;2023-04-24T04:56:05;9.90;99.90
56542;DHT22;42438;53.174;6.730;2023-04-24T04:58:36;9.90;99.90
56542;DHT22;42438;53.174;6.730;2023-04-24T05:01:06;9.80;99.90
56542;DHT22;42438;53.174;6.730;2023-04-24T05:03:37;9.80;99.90
56542;DHT22;42438;53.174;6.730;2023-04-24T05:06:08;9.80;99.90
56542;DHT22;42438;53.174;6.730;2023-04-24T05:08:38;9.60;99.90
56542;DHT22;42438;53.174;6.730;2023-04-24T05:11:09;9.70;99.90
56542;DHT22;42438;53.174;6.730;2023-04-24T05:13:39;9.70;99.90
56542;DHT22;42438;53.174;6.730;2023-04-24T05:16:10;9.90;99.90
56542;DHT22;42438;53.174;6.730;2023-04-24T05:18:41;9.90;99.90
56542;DHT22;42438;53.174;6.730;2023-04-24T05:21:11;9.90;99.90
56542;DHT22;42438;53.174;6.730;2023-04-24T05:23:42;9.90;99.90
56542;DHT22;42438;53.174;6.730;2023-04-24T05:26:13;9.90;99.90
56542;DHT22;42438;53.174;6.730;2023-04-24T05:28:43;9.70;99.90
56542;DHT22;42438;53.174;6.730;2023-04-24T05:31:14;10.30;99.90
56542;DHT22;42438;53.174;6.730;2023-04-24T05:33:44;9.90;99.90
56542;DHT22;42438;53.174;6.730;2023-04-24T05:36:15;10.00;99.90
56542;DHT22;42438;53.174;6.730;2023-04-24T05:38:45;10.00;99.90
56542;DHT22;42438;53.174;6.730;2023-04-24T05:41:16;10.10;99.90
56542;DHT22;42438;53.174;6.730;2023-04-24T05:43:47;9.90;99.90
56542;DHT22;42438;53.174;6.730;2023-04-24T05:46:17;10.00;99.90
56542;DHT22;42438;53.174;6.730;2023-04-24T05:48:48;9.80;99.90
56542;DHT22;42438;53.174;6.730;2023-04-24T05:51:18;9.70;99.90
56542;DHT22;42438;53.174;6.730;2023-04-24T05:53:49;9.90;99.90
56542;DHT22;42438;53.174;6.730;2023-04-24T05:56:19;9.80;99.90
56542;DHT22;42438;53.174;6.730;2023-04-24T05:58:50;10.40;99.90
56542;DHT22;42438;53.174;6.730;2023-04-24T06:01:21;9.70;99.90
56542;DHT22;42438;53.174;6.730;2023-04-24T06:03:51;10.00;99.90
56542;DHT22;42438;53.174;6.730;2023-04-24T06:06:23;9.70;99.90
56542;DHT22;42438;53.174;6.730;2023-04-24T06:08:54;10.20;99.90
56542;DHT22;42438;53.174;6.730;2023-04-24T06:11:24;9.90;99.90
56542;DHT22;42438;53.174;6.730;2023-04-24T06:13:55;10.00;99.90
56542;DHT22;42438;53.174;6.730;2023-04-24T06:16:25;9.80;99.90
56542;DHT22;42438;53.174;6.730;2023-04-24T06:18:56;9.90;99.90
56542;DHT22;42438;53.174;6.730;2023-04-24T06:21:26;9.90;99.90
56542;DHT22;42438;53.174;6.730;2023-04-24T06:23:57;9.90;99.90
56542;DHT22;42438;53.174;6.730;2023-04-24T06:26:28;10.00;99.90
56542;DHT22;42438;53.174;6.730;2023-04-24T06:28:59;10.10;99.90
56542;DHT22;42438;53.174;6.730;2023-04-24T06:31:30;10.30;99.90
56542;DHT22;42438;53.174;6.730;2023-04-24T06:34:01;10.10;99.90
56542;DHT22;42438;53.174;6.730;2023-04-24T06:36:32;10.20;99.90
56542;DHT22;42438;53.174;6.730;2023-04-24T06:39:04;10.50;99.90
56542;DHT22;42438;53.174;6.730;2023-04-24T06:41:35;10.20;99.90
56542;DHT22;42438;53.174;6.730;2023-04-24T06:44:05;9.90;99.90
56542;DHT22;42438;53.174;6.730;2023-04-24T06:46:36;10.10;99.90
56542;DHT22;42438;53.174;6.730;2023-04-24T06:49:07;10.30;99.90
56542;DHT22;42438;53.174;6.730;2023-04-24T06:51:37;10.50;99.90
56542;DHT22;42438;53.174;6.730;2023-04-24T06:54:08;10.40;99.90
56542;DHT22;42438;53.174;6.730;2023-04-24T06:56:38;10.20;99.90
56542;DHT22;42438;53.174;6.730;2023-04-24T06:59:09;10.10;99.90
56542;DHT22;42438;53.174;6.730;2023-04-24T07:01:39;10.10;99.90
56542;DHT22;42438;53.174;6.730;2023-04-24T07:04:10;10.20;99.90
56542;DHT22;42438;53.174;6.730;2023-04-24T07:06:42;10.10;99.90
56542;DHT22;42438;53.174;6.730;2023-04-24T07:09:13;9.90;99.90
56542;DHT22;42438;53.174;6.730;2023-04-24T07:11:44;10.10;99.90
56542;DHT22;42438;53.174;6.730;2023-04-24T07:14:15;10.10;99.90
56542;DHT22;42438;53.174;6.730;2023-04-24T07:16:46;10.00;99.90
56542;DHT22;42438;53.174;6.730;2023-04-24T07:19:16;10.30;99.90
56542;DHT22;42438;53.174;6.730;2023-04-24T07:21:47;10.20;99.90
56542;DHT22;42438;53.174;6.730;2023-04-24T07:24:17;10.00;99.90
56542;DHT22;42438;53.174;6.730;2023-04-24T07:26:48;10.10;99.90
56542;DHT22;42438;53.174;6.730;2023-04-24T07:29:19;10.10;99.90
56542;DHT22;42438;53.174;6.730;2023-04-24T07:31:50;10.20;99.90
56542;DHT22;42438;53.174;6.730;2023-04-24T07:34:20;10.40;99.90
56542;DHT22;42438;53.174;6.730;2023-04-24T07:36:51;10.20;99.90
56542;DHT22;42438;53.174;6.730;2023-04-24T07:39:22;10.60;99.90
56542;DHT22;42438;53.174;6.730;2023-04-24T07:41:53;10.60;99.90
56542;DHT22;42438;53.174;6.730;2023-04-24T07:44:23;10.30;99.90
56542;DHT22;42438;53.174;6.730;2023-04-24T07:46:54;10.40;99.90
56542;DHT22;42438;53.174;6.730;2023-04-24T07:49:26;9.90;99.90
56542;DHT22;42438;53.174;6.730;2023-04-24T07:51:58;9.90;99.90
56542;DHT22;42438;53.174;6.730;2023-04-24T07:54:30;9.90;99.90
56542;DHT22;42438;53.174;6.730;2023-04-24T07:57:01;9.70;99.90
56542;DHT22;42438;53.174;6.730;2023-04-24T07:59:32;9.80;99.90
56542;DHT22;42438;53.174;6.730;2023-04-24T08:02:02;9.70;99.90
56542;DHT22;42438;53.174;6.730;2023-04-24T08:04:33;9.90;99.90
56542;DHT22;42438;53.174;6.730;2023-04-24T08:07:03;9.90;99.90
56542;DHT22;42438;53.174;6.730;2023-04-24T08:09:34;9.90;99.90
56542;DHT22;42438;53.174;6.730;2023-04-24T08:12:05;9.50;99.90
56542;DHT22;42438;53.174;6.730;2023-04-24T08:14:35;9.50;99.90
56542;DHT22;42438;53.174;6.730;2023-04-24T08:17:06;9.70;99.90
56542;DHT22;42438;53.174;6.730;2023-04-24T08:19:36;9.50;99.90
56542;DHT22;42438;53.174;6.730;2023-04-24T08:22:07;9.90;99.90
56542;DHT22;42438;53.174;6.730;2023-04-24T08:24:37;9.70;99.90
56542;DHT22;42438;53.174;6.730;2023-04-24T08:27:08;9.70;99.90
56542;DHT22;42438;53.174;6.730;2023-04-24T08:29:39;9.50;99.90
56542;DHT22;42438;53.174;6.730;2023-04-24T08:32:09;9.80;99.90
56542;DHT22;42438;53.174;6.730;2023-04-24T08:34:40;9.40;99.90
56542;DHT22;42438;53.174;6.730;2023-04-24T08:37:11;9.40;99.90
56542;DHT22;42438;53.174;6.730;2023-04-24T08:39:42;9.40;99.90
56542;DHT22;42438;53.174;6.730;2023-04-24T08:42:12;9.50;99.90
56542;DHT22;42438;53.174;6.730;2023-04-24T08:44:43;9.40;99.90
56542;DHT22;42438;53.174;6.730;2023-04-24T08:47:14;9.40;99.90
56542;DHT22;42438;53.174;6.730;2023-04-24T08:49:46;9.20;99.90
56542;DHT22;42438;53.174;6.730;2023-04-24T08:52:18;9.20;99.90
56542;DHT22;42438;53.174;6.730;2023-04-24T08:54:49;9.30;99.90
56542;DHT22;42438;53.174;6.730;2023-04-24T08:57:19;9.30;99.90
56542;DHT22;42438;53.174;6.730;2023-04-24T08:59:50;9.10;99.90
56542;DHT22;42438;53.174;6.730;2023-04-24T09:02:21;9.30;99.90
56542;DHT22;42438;53.174;6.730;2023-04-24T09:04:52;9.20;99.90
56542;DHT22;42438;53.174;6.730;2023-04-24T09:07:24;9.50;99.90
56542;DHT22;42438;53.174;6.730;2023-04-24T09:09:56;9.30;99.90
56542;DHT22;42438;53.174;6.730;2023-04-24T09:12:26;9.20;99.90
56542;DHT22;42438;53.174;6.730;2023-04-24T09:14:57;9.20;99.90
56542;DHT22;42438;53.174;6.730;2023-04-24T09:17:30;8.90;99.90
56542;DHT22;42438;53.174;6.730;2023-04-24T09:20:00;9.10;99.90
56542;DHT22;42438;53.174;6.730;2023-04-24T09:22:31;8.60;99.90
56542;DHT22;42438;53.174;6.730;2023-04-24T09:25:06;8.60;99.90
56542;DHT22;42438;53.174;6.730;2023-04-24T09:27:41;8.50;99.90
56542;DHT22;42438;53.174;6.730;2023-04-24T09:30:12;8.60;99.90
56542;DHT22;42438;53.174;6.730;2023-04-24T09:32:42;8.50;99.90
56542;DHT22;42438;53.174;6.730;2023-04-24T09:35:14;8.50;99.90
56542;DHT22;42438;53.174;6.730;2023-04-24T09:37:45;8.50;99.90
56542;DHT22;42438;53.174;6.730;2023-04-24T09:40:20;8.60;99.90
56542;DHT22;42438;53.174;6.730;2023-04-24T09:42:51;8.60;99.90
56542;DHT22;42438;53.174;6.730;2023-04-24T09:45:26;8.60;99.90
56542;DHT22;42438;53.174;6.730;2023-04-24T09:47:57;8.60;99.90
56542;DHT22;42438;53.174;6.730;2023-04-24T09:50:29;8.60;99.90
56542;DHT22;42438;53.174;6.730;2023-04-24T09:53:02;8.60;99.90
56542;DHT22;42438;53.174;6.730;2023-04-24T09:55:33;8.60;99.90
56542;DHT22;42438;53.174;6.730;2023-04-24T09:58:09;8.70;99.90
56542;DHT22;42438;53.174;6.730;2023-04-24T10:00:40;8.70;99.90
56542;DHT22;42438;53.174;6.730;2023-04-24T10:03:11;8.60;99.90
56542;DHT22;42438;53.174;6.730;2023-04-24T10:05:42;8.50;99.90
56542;DHT22;42438;53.174;6.730;2023-04-24T10:08:13;8.40;99.90
56542;DHT22;42438;53.174;6.730;2023-04-24T10:10:44;8.40;99.90
56542;DHT22;42438;53.174;6.730;2023-04-24T10:13:15;8.40;99.90
56542;DHT22;42438;53.174;6.730;2023-04-24T10:15:46;8.40;99.90
56542;DHT22;42438;53.174;6.730;2023-04-24T10:18:18;8.50;99.90
56542;DHT22;42438;53.174;6.730;2023-04-24T10:20:49;8.50;99.90
56542;DHT22;42438;53.174;6.730;2023-04-24T10:23:20;8.60;99.90
56542;DHT22;42438;53.174;6.730;2023-04-24T10:25:51;8.80;99.90
56542;DHT22;42438;53.174;6.730;2023-04-24T10:28:22;9.00;99.90
56542;DHT22;42438;53.174;6.730;2023-04-24T10:30:55;9.10;99.90
56542;DHT22;42438;53.174;6.730;2023-04-24T10:33:26;9.20;99.90
56542;DHT22;42438;53.174;6.730;2023-04-24T10:35:58;9.30;99.90
56542;DHT22;42438;53.174;6.730;2023-04-24T10:38:29;9.40;99.90
56542;DHT22;42438;53.174;6.730;2023-04-24T10:41:09;9.40;99.90
56542;DHT22;42438;53.174;6.730;2023-04-24T10:43:40;9.50;99.90
56542;DHT22;42438;53.174;6.730;2023-04-24T10:46:16;9.50;99.90
56542;DHT22;42438;53.174;6.730;2023-04-24T10:48:53;9.50;99.90
56542;DHT22;42438;53.174;6.730;2023-04-24T10:51:42;9.50;99.90
56542;DHT22;42438;53.174;6.730;2023-04-24T10:59:44;9.70;99.90
56542;DHT22;42438;53.174;6.730;2023-04-24T11:02:15;9.70;99.90
56542;DHT22;42438;53.174;6.730;2023-04-24T11:04:46;9.80;99.90
56542;DHT22;42438;53.174;6.730;2023-04-24T11:07:21;9.90;99.90
56542;DHT22;42438;53.174;6.730;2023-04-24T11:09:57;10.00;99.90
56542;DHT22;42438;53.174;6.730;2023-04-24T11:12:28;10.00;99.90
56542;DHT22;42438;53.174;6.730;2023-04-24T11:15:02;10.00;99.90
56542;DHT22;42438;53.174;6.730;2023-04-24T11:20:04;10.20;99.90
56542;DHT22;42438;53.174;6.730;2023-04-24T11:22:38;10.20;99.90
56542;DHT22;42438;53.174;6.730;2023-04-24T11:25:10;10.10;99.90
56542;DHT22;42438;53.174;6.730;2023-04-24T11:27:42;9.90;99.90
56542;DHT22;42438;53.174;6.730;2023-04-24T11:30:16;9.70;99.90
56542;DHT22;42438;53.174;6.730;2023-04-24T11:32:48;9.50;99.90
56542;DHT22;42438;53.174;6.730;2023-04-24T11:35:21;9.40;99.90
56542;DHT22;42438;53.174;6.730;2023-04-24T11:37:55;9.40;99.90
56542;DHT22;42438;53.174;6.730;2023-04-24T11:40:25;9.40;99.90
56542;DHT22;42438;53.174;6.730;2023-04-24T11:42:56;9.40;99.90
56542;DHT22;42438;53.174;6.730;2023-04-24T11:45:27;9.60;99.90
56542;DHT22;42438;53.174;6.730;2023-04-24T11:47:58;9.60;99.90
56542;DHT22;42438;53.174;6.730;2023-04-24T11:50:29;9.60;99.90
56542;DHT22;42438;53.174;6.730;2023-04-24T11:53:00;9.50;99.90
56542;DHT22;42438;53.174;6.730;2023-04-24T11:55:31;9.40;99.90
56542;DHT22;42438;53.174;6.730;2023-04-24T11:58:02;9.30;99.90
56542;DHT22;42438;53.174;6.730;2023-04-24T12:00:34;9.40;99.90
56542;DHT22;42438;53.174;6.730;2023-04-24T12:03:13;9.40;99.90
56542;DHT22;42438;53.174;6.730;2023-04-24T12:05:44;9.60;99.90
56542;DHT22;42438;53.174;6.730;2023-04-24T12:08:28;9.70;99.90
56542;DHT22;42438;53.174;6.730;2023-04-24T12:11:02;9.70;99.90
56542;DHT22;42438;53.174;6.730;2023-04-24T12:13:34;9.70;99.90
56542;DHT22;42438;53.174;6.730;2023-04-24T12:16:05;9.70;99.90
56542;DHT22;42438;53.174;6.730;2023-04-24T12:18:41;9.60;99.90
56542;DHT22;42438;53.174;6.730;2023-04-24T12:21:15;9.50;99.90
56542;DHT22;42438;53.174;6.730;2023-04-24T12:23:45;9.40;99.90
56542;DHT22;42438;53.174;6.730;2023-04-24T12:26:17;9.40;99.90
56542;DHT22;42438;53.174;6.730;2023-04-24T12:28:48;9.20;99.90
56542;DHT22;42438;53.174;6.730;2023-04-24T12:31:22;9.10;99.90
56542;DHT22;42438;53.174;6.730;2023-04-24T12:33:53;9.60;99.90
56542;DHT22;42438;53.174;6.730;2023-04-24T12:36:25;9.20;99.90
56542;DHT22;42438;53.174;6.730;2023-04-24T12:38:57;9.60;99.90
56542;DHT22;42438;53.174;6.730;2023-04-24T12:41:27;9.40;99.90
56542;DHT22;42438;53.174;6.730;2023-04-24T12:44:00;9.60;99.90
56542;DHT22;42438;53.174;6.730;2023-04-24T12:46:31;10.20;99.90
56542;DHT22;42438;53.174;6.730;2023-04-24T12:49:02;10.00;99.90
56542;DHT22;42438;53.174;6.730;2023-04-24T12:51:32;9.50;99.90
56542;DHT22;42438;53.174;6.730;2023-04-24T12:54:03;10.40;99.90
56542;DHT22;42438;53.174;6.730;2023-04-24T12:56:33;10.10;99.90
56542;DHT22;42438;53.174;6.730;2023-04-24T12:59:04;10.50;99.90
56542;DHT22;42438;53.174;6.730;2023-04-24T13:01:34;10.30;99.90
56542;DHT22;42438;53.174;6.730;2023-04-24T13:04:05;10.20;99.90
56542;DHT22;42438;53.174;6.730;2023-04-24T13:06:36;10.40;99.90
56542;DHT22;42438;53.174;6.730;2023-04-24T13:09:06;10.00;99.90
56542;DHT22;42438;53.174;6.730;2023-04-24T13:11:38;10.30;99.90
56542;DHT22;42438;53.174;6.730;2023-04-24T13:14:08;10.00;99.90
56542;DHT22;42438;53.174;6.730;2023-04-24T13:16:39;9.90;99.90
56542;DHT22;42438;53.174;6.730;2023-04-24T13:19:09;9.70;99.90
56542;DHT22;42438;53.174;6.730;2023-04-24T13:21:40;9.90;99.90
56542;DHT22;42438;53.174;6.730;2023-04-24T13:24:11;9.50;99.90
56542;DHT22;42438;53.174;6.730;2023-04-24T13:31:43;9.10;99.90
56542;DHT22;42438;53.174;6.730;2023-04-24T13:34:14;9.10;99.90
56542;DHT22;42438;53.174;6.730;2023-04-24T13:36:45;9.20;99.90
56542;DHT22;42438;53.174;6.730;2023-04-24T13:39:16;9.00;99.90
56542;DHT22;42438;53.174;6.730;2023-04-24T13:41:47;9.30;99.90
56542;DHT22;42438;53.174;6.730;2023-04-24T13:44:19;9.20;99.90
56542;DHT22;42438;53.174;6.730;2023-04-24T13:46:51;9.00;99.90
56542;DHT22;42438;53.174;6.730;2023-04-24T13:49:24;9.60;99.90
56542;DHT22;42438;53.174;6.730;2023-04-24T13:51:55;9.40;99.90
56542;DHT22;42438;53.174;6.730;2023-04-24T13:54:26;9.60;99.90
56542;DHT22;42438;53.174;6.730;2023-04-24T13:56:57;9.70;99.90
56542;DHT22;42438;53.174;6.730;2023-04-24T13:59:28;9.90;99.90
56542;DHT22;42438;53.174;6.730;2023-04-24T14:01:58;9.60;99.90
56542;DHT22;42438;53.174;6.730;2023-04-24T14:04:29;9.60;99.90
56542;DHT22;42438;53.174;6.730;2023-04-24T14:06:59;9.70;99.90
56542;DHT22;42438;53.174;6.730;2023-04-24T14:09:30;9.70;99.90
56542;DHT22;42438;53.174;6.730;2023-04-24T14:12:01;9.60;99.90
56542;DHT22;42438;53.174;6.730;2023-04-24T14:14:32;9.60;99.90
56542;DHT22;42438;53.174;6.730;2023-04-24T14:17:02;9.60;99.90
56542;DHT22;42438;53.174;6.730;2023-04-24T14:19:33;9.50;99.90
56542;DHT22;42438;53.174;6.730;2023-04-24T14:22:03;10.10;99.90
56542;DHT22;42438;53.174;6.730;2023-04-24T14:24:34;9.20;99.90
56542;DHT22;42438;53.174;6.730;2023-04-24T14:27:05;9.10;99.90
56542;DHT22;42438;53.174;6.730;2023-04-24T14:29:35;9.20;99.90
56542;DHT22;42438;53.174;6.730;2023-04-24T14:32:06;9.20;99.90
56542;DHT22;42438;53.174;6.730;2023-04-24T14:34:37;9.00;99.90
56542;DHT22;42438;53.174;6.730;2023-04-24T14:37:07;9.20;99.90
56542;DHT22;42438;53.174;6.730;2023-04-24T14:39:38;9.20;99.90
56542;DHT22;42438;53.174;6.730;2023-04-24T14:42:08;9.40;99.90
56542;DHT22;42438;53.174;6.730;2023-04-24T14:44:39;9.30;99.90
56542;DHT22;42438;53.174;6.730;2023-04-24T14:47:09;9.50;99.90
56542;DHT22;42438;53.174;6.730;2023-04-24T14:49:40;9.00;99.90
56542;DHT22;42438;53.174;6.730;2023-04-24T14:52:10;9.30;99.90
56542;DHT22;42438;53.174;6.730;2023-04-24T14:54:41;9.50;99.90
56542;DHT22;42438;53.174;6.730;2023-04-24T14:57:12;9.70;99.90
56542;DHT22;42438;53.174;6.730;2023-04-24T14:59:42;9.50;99.90
56542;DHT22;42438;53.174;6.730;2023-04-24T15:02:13;9.80;99.90
56542;DHT22;42438;53.174;6.730;2023-04-24T15:04:43;9.20;99.90
56542;DHT22;42438;53.174;6.730;2023-04-24T15:07:14;9.40;99.90
56542;DHT22;42438;53.174;6.730;2023-04-24T15:09:45;9.20;99.90
56542;DHT22;42438;53.174;6.730;2023-04-24T15:12:17;9.60;99.90
56542;DHT22;42438;53.174;6.730;2023-04-24T15:14:47;9.40;99.90
56542;DHT22;42438;53.174;6.730;2023-04-24T15:17:18;9.40;99.90
56542;DHT22;42438;53.174;6.730;2023-04-24T15:19:48;9.40;99.90
56542;DHT22;42438;53.174;6.730;2023-04-24T15:22:19;9.40;99.90
56542;DHT22;42438;53.174;6.730;2023-04-24T15:24:50;9.60;99.90
56542;DHT22;42438;53.174;6.730;2023-04-24T15:27:21;9.00;99.90
56542;DHT22;42438;53.174;6.730;2023-04-24T15:29:51;8.90;99.90
56542;DHT22;42438;53.174;6.730;2023-04-24T15:32:23;9.00;99.90
56542;DHT22;42438;53.174;6.730;2023-04-24T15:34:54;9.20;99.90
56542;DHT22;42438;53.174;6.730;2023-04-24T15:37:24;9.30;99.90
56542;DHT22;42438;53.174;6.730;2023-04-24T15:39:55;9.30;99.90
56542;DHT22;42438;53.174;6.730;2023-04-24T15:42:26;9.30;99.90
56542;DHT22;42438;53.174;6.730;2023-04-24T15:44:56;9.30;99.90
56542;DHT22;42438;53.174;6.730;2023-04-24T15:47:27;9.00;99.90
56542;DHT22;42438;53.174;6.730;2023-04-24T15:49:58;9.00;99.90
56542;DHT22;42438;53.174;6.730;2023-04-24T15:52:28;9.20;99.90
56542;DHT22;42438;53.174;6.730;2023-04-24T15:54:59;9.40;99.90
56542;DHT22;42438;53.174;6.730;2023-04-24T15:57:29;9.40;99.90
56542;DHT22;42438;53.174;6.730;2023-04-24T16:00:00;9.40;99.90
56542;DHT22;42438;53.174;6.730;2023-04-24T16:02:30;9.00;99.90
56542;DHT22;42438;53.174;6.730;2023-04-24T16:05:01;8.70;99.90
56542;DHT22;42438;53.174;6.730;2023-04-24T16:07:32;9.10;99.90
56542;DHT22;42438;53.174;6.730;2023-04-24T16:10:03;8.70;99.90
56542;DHT22;42438;53.174;6.730;2023-04-24T16:12:34;8.80;99.90
56542;DHT22;42438;53.174;6.730;2023-04-24T16:15:05;9.00;99.90
56542;DHT22;42438;53.174;6.730;2023-04-24T16:17:35;8.80;99.90
56542;DHT22;42438;53.174;6.730;2023-04-24T16:20:06;8.70;99.90
56542;DHT22;42438;53.174;6.730;2023-04-24T16:22:37;8.80;99.90
56542;DHT22;42438;53.174;6.730;2023-04-24T16:25:08;9.00;99.90
56542;DHT22;42438;53.174;6.730;2023-04-24T16:27:39;9.30;99.90
56542;DHT22;42438;53.174;6.730;2023-04-24T16:30:09;8.80;99.90
56542;DHT22;42438;53.174;6.730;2023-04-24T16:32:40;8.70;99.90
56542;DHT22;42438;53.174;6.730;2023-04-24T16:35:11;8.60;99.90
56542;DHT22;42438;53.174;6.730;2023-04-24T16:37:41;8.80;99.90
56542;DHT22;42438;53.174;6.730;2023-04-24T16:40:12;8.80;99.90
56542;DHT22;42438;53.174;6.730;2023-04-24T16:42:42;8.80;99.90
56542;DHT22;42438;53.174;6.730;2023-04-24T16:45:13;8.50;99.90